sensor_id;sensor_type;location;lat;lon;timestamp;pressure;altitude;pressure_sealevel;temperature;humidity
26178;BME280;13924;47.670;10.310;2023-02-19T01:00:43;93830;;;9.1;100.0
26178;BME280;13924;47.670;10.310;2023-02-19T01:15:43;93800;;;9.0;100.0
26178;BME280;13924;47.670;10.310;2023-02-19T01:30:44;93800;;;8.9;100.0
26178;BME280;13924;47.670;10.310;2023-02-19T01:45:45;93790;;;8.9;100.0
26178;BME280;13924;47.670;10.310;2023-02-19T02:00:46;93770;;;8.9;100.0
26178;BME280;13924;47.670;10.310;2023-02-19T02:15:53;93750;;;8.7;100.0
26178;BME280;13924;47.670;10.310;2023-02-19T02:30:53;93750;;;8.7;100.0
26178;BME280;13924;47.670;10.310;2023-02-19T02:45:48;93710;;;8.6;100.0
26178;BME280;13924;47.670;10.310;2023-02-19T03:00:54;93710;;;8.6;100.0
26178;BME280;13924;47.670;10.310;2023-02-19T03:15:55;93700;;;8.4;100.0
26178;BME280;13924;47.670;10.310;2023-02-19T03:30:52;93680;;;8.3;100.0
26178;BME280;13924;47.670;10.310;2023-02-19T03:45:59;93670;;;8.2;100.0
26178;BME280;13924;47.670;10.310;2023-02-19T04:00:57;93690;;;8.4;100.0
26178;BME280;13924;47.670;10.310;2023-02-19T04:15:59;93720;;;8.3;100.0
26178;BME280;13924;47.670;10.310;2023-02-19T04:30:55;93690;;;8.1;100.0
26178;BME280;13924;47.670;10.310;2023-02-19T04:45:59;93690;;;8.1;100.0
26178;BME280;13924;47.670;10.310;2023-02-19T05:00:56;93810;;;7.4;100.0
26178;BME280;13924;47.670;10.310;2023-02-19T05:15:57;93890;;;7.2;100.0
26178;BME280;13924;47.670;10.310;2023-02-19T05:30:57;93890;;;7.3;100.0
26178;BME280;13924;47.670;10.310;2023-02-19T05:45:57;93930;;;7.2;100.0
26178;BME280;13924;47.670;10.310;2023-02-19T06:00:58;93960;;;7.1;100.0
26178;BME280;13924;47.670;10.310;2023-02-19T06:16:03;93960;;;7.1;100.0
26178;BME280;13924;47.670;10.310;2023-02-19T06:19:37;93890;;;7.4;100.0
26178;BME280;13924;47.670;10.310;2023-02-19T06:34:37;93890;;;7.4;100.0
26178;BME280;13924;47.670;10.310;2023-02-19T06:49:40;93890;;;7.4;100.0
26178;BME280;13924;47.670;10.310;2023-02-19T07:04:41;93920;;;7.4;100.0
26178;BME280;13924;47.670;10.310;2023-02-19T07:19:38;94270;;;6.9;100.0
26178;BME280;13924;47.670;10.310;2023-02-19T07:34:51;94270;;;6.9;100.0
26178;BME280;13924;47.670;10.310;2023-02-19T07:35:58;94340;;;6.9;100.0
26178;BME280;13924;47.670;10.310;2023-02-19T07:51:00;94440;;;6.8;100.0
26178;BME280;13924;47.670;10.310;2023-02-19T08:05:59;94480;;;6.8;100.0
26178;BME280;13924;47.670;10.310;2023-02-19T08:21:00;94390;;;7.0;100.0
26178;BME280;13924;47.670;10.310;2023-02-19T08:36:05;94340;;;7.2;100.0
26178;BME280;13924;47.670;10.310;2023-02-19T08:51:04;94330;;;7.3;100.0
26178;BME280;13924;47.670;10.310;2023-02-19T09:06:02;94310;;;7.5;100.0
26178;BME280;13924;47.670;10.310;2023-02-19T09:21:04;94300;;;7.7;100.0
26178;BME280;13924;47.670;10.310;2023-02-19T09:36:04;94210;;;7.8;100.0
26178;BME280;13924;47.670;10.310;2023-02-19T09:51:04;94200;;;7.9;100.0
26178;BME280;13924;47.670;10.310;2023-02-19T10:06:13;94200;;;7.9;100.0
26178;BME280;13924;47.670;10.310;2023-02-19T10:21:16;94190;;;8.1;100.0
26178;BME280;13924;47.670;10.310;2023-02-19T10:36:25;94190;;;8.1;100.0
26178;BME280;13924;47.670;10.310;2023-02-19T11:36:25;94130;;;8.1;100.0
26178;BME280;13924;47.670;10.310;2023-02-19T11:51:21;94240;;;7.7;100.0
26178;BME280;13924;47.670;10.310;2023-02-19T12:06:21;94050;;;8.4;100.0
26178;BME280;13924;47.670;10.310;2023-02-19T12:21:25;94050;;;8.4;100.0
26178;BME280;13924;47.670;10.310;2023-02-19T12:36:22;94000;;;8.7;100.0
26178;BME280;13924;47.670;10.310;2023-02-19T13:06:32;94000;;;8.7;100.0
26178;BME280;13924;47.670;10.310;2023-02-19T14:21:23;93970;;;10.9;100.0
26178;BME280;13924;47.670;10.310;2023-02-19T14:36:28;93980;;;10.5;100.0
26178;BME280;13924;47.670;10.310;2023-02-19T15:06:46;93980;;;10.5;100.0
26178;BME280;13924;47.670;10.310;2023-02-19T17:21:25;94140;;;7.7;100.0
26178;BME280;13924;47.670;10.310;2023-02-19T17:36:28;94140;;;7.7;100.0
26178;BME280;13924;47.670;10.310;2023-02-19T17:51:39;94170;;;7.6;100.0
26178;BME280;13924;47.670;10.310;2023-02-19T18:06:25;94190;;;7.4;100.0
26178;BME280;13924;47.670;10.310;2023-02-19T18:21:25;94200;;;7.4;100.0
26178;BME280;13924;47.670;10.310;2023-02-19T18:36:27;94220;;;7.3;100.0
26178;BME280;13924;47.670;10.310;2023-02-19T18:51:38;94220;;;7.3;100.0
26178;BME280;13924;47.670;10.310;2023-02-19T19:21:29;94250;;;7.4;100.0
26178;BME280;13924;47.670;10.310;2023-02-19T19:36:31;94250;;;7.4;100.0
26178;BME280;13924;47.670;10.310;2023-02-19T20:06:41;94240;;;7.2;100.0
26178;BME280;13924;47.670;10.310;2023-02-19T20:21:31;94250;;;7.1;100.0
26178;BME280;13924;47.670;10.310;2023-02-19T20:37:07;94250;;;7.1;100.0
26178;BME280;13924;47.670;10.310;2023-02-19T20:51:41;94260;;;7.2;100.0
26178;BME280;13924;47.670;10.310;2023-02-19T21:06:43;94260;;;7.2;100.0
26178;BME280;13924;47.670;10.310;2023-02-19T21:21:33;94250;;;7.1;100.0
26178;BME280;13924;47.670;10.310;2023-02-19T21:36:39;94250;;;7.1;100.0
26178;BME280;13924;47.670;10.310;2023-02-19T22:36:36;94300;;;7.2;100.0
